• Join FlightAware (Why Join?)
  • Login
  • US Flag 
06:33AM EDT


 

Airport Tracker/Info


-or-


 

Live Flight TrackerFlight Track Log ✈ N999TF ✈ 10-Oct-2013 ✈ S21 - KUAO

Flight Track Log - Related Links

Times and Time Zones

All times are in EDT time to prevent confusion due to time zone crossing. See the N999TF flight status page for this flight to view local times or setup timezone preferences in your user account.

Time Position Orientation Groundspeed Altitude Reporting Facility
EDT Latitude Longitude Course Direction KTS MPH feet Rate Location/Type
03:36PM 44.1072 -121.3733 307° West 153 176 8,300  Level Seattle Center
03:37PM 44.1450 -121.3558 18° North 145 167 9,200 840 Climbing Seattle Center
03:38PM 44.1814 -121.3617 353° North 139 160 10,100 540 Climbing Seattle Center
03:39PM 44.2131 -121.3878 329° Northwest 145 167 10,300 120 Climbing Seattle Center
03:40PM 44.2425 -121.4375 310° West 165 190 10,400  Climbing Seattle Center
03:42PM 44.0854 -121.6490 307° West  Level Estimated
03:42PM 44.2781 -121.4953 311° West 165 190 10,400  Level Seattle Center
03:43PM 44.3069 -121.5458 309° West 165 190 10,400  Level Seattle Center
03:44PM 44.3361 -121.5953 310° West 165 190 10,400  Level Seattle Center
03:45PM 44.3661 -121.6456 310° West 165 190 10,400  Level Seattle Center
03:46PM 44.3942 -121.6950 308° West 163 188 10,400  Level Seattle Center
03:47PM 44.4225 -121.7453 308° West 164 189 10,400  Level Seattle Center
03:48PM 44.4525 -121.7942 311° West 164 189 10,400  Level Seattle Center
03:49PM 44.4806 -121.8433 309° West 163 188 10,400  Level Seattle Center
03:50PM 44.5072 -121.8908 308° West 159 183 10,400  Level Seattle Center
03:51PM 44.5411 -121.9450 311° West 167 192 10,500  Climbing Seattle Center
03:52PM 44.5706 -121.9947 310° West 165 190 10,500 -240 Level Seattle Center
03:53PM 44.5978 -122.0433 308° West 160 184 10,100 -480 Descending Seattle Center
03:54PM 44.6294 -122.0983 309° West 164 189 9,600 -600 Descending Seattle Center
03:55PM 44.6553 -122.1450 308° West 157 181 8,900 -720 Descending Seattle Center
03:56PM 44.6844 -122.1953 309° West 163 188 8,200 -480 Descending Seattle Center
03:57PM 44.7125 -122.2425 310° West 159 183 8,000 -120 Descending Seattle Center
03:58PM 44.7336 -122.2819 307° West 148 170 8,000  Level Seattle Center
03:59PM 44.7647 -122.3358 309° West 147 169 8,000  Level Seattle Center
04:00PM 44.7903 -122.3800 309° West 146 168 8,000  Level Seattle Center
04:01PM 44.8153 -122.4247 308° West 145 167 8,000  Level Seattle Center
04:02PM 44.8400 -122.4675 309° West 142 163 8,000  Level Seattle Center
04:03PM 44.8656 -122.5128 309° West 145 167 8,000  Level Seattle Center
04:04PM 44.8906 -122.5569 309° West 144 166 8,000 -180 Level Seattle Center
04:05PM 44.9156 -122.5981 311° West 141 162 7,700 -540 Descending Seattle Center
04:06PM 44.9306 -122.6281 305° West 142 163 7,200 -720 Descending Seattle Center
04:06PM 44.9414 -122.6444 313° West 146 168 7,000 -720 Descending Seattle Center
04:06PM 44.9475 -122.6578 303° West 149 171 6,800 -840 Descending Seattle Center
04:07PM 44.9683 -122.6908 312° West 153 176 6,200 -900 Descending Seattle Center
04:07PM 44.9744 -122.7050 301° West 155 178 5,900 -1,200 Descending Seattle Center
04:08PM 45.0000 -122.7475 310° West 154 177 5,000 -1,020 Descending Seattle Center
04:08PM 45.0014 -122.7522 293° West 150 173 4,900 -1,020 Descending Seattle Center
04:09PM 45.0272 -122.7964 310° West 160 184 4,000 -900 Descending Seattle Center
04:09PM 45.0256 -122.7975 205° Southwest 154 177 4,000 -720 Level Seattle Center
04:10PM 45.0661 -122.8014 356° North 149 171 3,300 -840 Descending Seattle Center
04:11PM 45.1006 -122.7961 North 130 150 2,500 -540 Descending Seattle Center
04:12PM 45.1303 -122.7919 North 114 131 2,300 -420 Descending Seattle Center
04:13PM 45.1625 -122.7858 North 115 132 1,700 -660 Descending Seattle Center
04:14PM 45.1947 -122.7800 North 117 135 1,000 -720 Descending Seattle Center
04:16PM 45.2333 -122.7667 North  Level FlightAware Approximate
04:23PM 45.2471 -122.7701 North  Level Estimated
04:24PM 45.2471 -122.7701 North  Level Estimated
04:25PM 45.2471 -122.7701 North  Level Estimated
04:26PM 45.2471 -122.7701 North  Level Estimated
04:27PM 45.2471 -122.7701 North  Level Estimated
04:28PM 45.2471 -122.7701 North  Level Estimated
04:29PM 45.2471 -122.7701 North  Level Estimated
04:30PM 45.2471 -122.7701 North  Level Estimated